Fidato — PB5970 — position and weather

sailwx.info

Track history (hours):
 
Tides and Currents Weather Stations Pressure Air Temp Water Temp Dewpoint Dewpoint Depression Visibility Wind Speed Wind Dir Waves Ship Positions

Fidato

Last reported at 2016-Sep-27 19:34 UTC. Time now 2016-Sep-28 06:59 UTC.
Position N 51°14' E 006°46'.

Length 135 m; draft 2.5 m.

Type: Ship. MMSI: 244670975.

Date/timePositionNaut miles runAvg speedWind from/ knotsBaromVisibWave heightAir tempDewpointWater temp
2016-Sep-27 19:34N 51°14' E 006°46'31 6.2
2016-Sep-27 14:34N 50°46' E 007°05'105 4.6
2016-Sep-26 15:33N 49°14' E 008°23'0 0.1
2016-Sep-26 13:34N 49°14' E 008°23'0 0.0
2016-Sep-26 11:33N 49°14' E 008°23'0 0.0
2016-Sep-26 08:34N 49°14' E 008°23'13 2.2
2016-Sep-26 02:34N 49°01' E 008°18'0 0.0
2016-Sep-26 01:33N 49°01' E 008°18'0 0.0
2016-Sep-26 00:34N 49°01' E 008°18'0 0.0
2016-Sep-25 21:34N 49°01' E 008°18'0 0.0
2016-Sep-25 17:33N 49°01' E 008°18'0 0.0
2016-Sep-25 16:33N 49°01' E 008°18'0 0.0
2016-Sep-25 15:34N 49°01' E 008°18'0 0.0
2016-Sep-25 14:33N 49°01' E 008°18'0 0.0
2016-Sep-25 12:34N 49°01' E 008°18'0 0.0
2016-Sep-25 11:33N 49°01' E 008°18'0 0.0
2016-Sep-25 10:34N 49°01' E 008°18'0 0.0
2016-Sep-25 09:34N 49°01' E 008°18'0 0.0
2016-Sep-25 07:33N 49°01' E 008°18'0 0.0
2016-Sep-25 04:33N 49°01' E 008°18'0 0.0
2016-Sep-25 00:34N 49°01' E 008°18'0 0.0
2016-Sep-24 22:34N 49°01' E 008°18'0 0.0
2016-Sep-24 21:34N 49°01' E 008°18'0 0.0
2016-Sep-24 19:34N 49°01' E 008°18'0 0.0
2016-Sep-24 18:34N 49°01' E 008°18'0 0.0
2016-Sep-24 17:33N 49°01' E 008°18'0 0.0
2016-Sep-24 16:33N 49°01' E 008°18'0 0.0
2016-Sep-24 14:34N 49°01' E 008°18'0 0.0
2016-Sep-24 12:34N 49°01' E 008°18'0 0.0
2016-Sep-24 10:34N 49°01' E 008°18'0 0.0
2016-Sep-24 09:34N 49°01' E 008°18'0 0.0
2016-Sep-24 03:34N 49°01' E 008°18'0 0.0
2016-Sep-24 02:33N 49°01' E 008°18'0 0.0
2016-Sep-24 01:33N 49°01' E 008°18'0 0.0
2016-Sep-24 00:33N 49°01' E 008°18'0 0.0
2016-Sep-23 19:34N 49°01' E 008°18'0 0.0
2016-Sep-23 17:32N 49°01' E 008°18'1 0.6
2016-Sep-23 16:34N 49°02' E 008°18'4 4.1
2016-Sep-23 15:34N 49°05' E 008°21'8 4.0
2016-Sep-23 13:34N 49°13' E 008°23'106 2.5
2016-Sep-21 19:33N 50°46' E 007°05'11 3.5
2016-Sep-21 16:30N 50°56' E 006°58'38 3.5
2016-Sep-21 05:32N 51°32' E 006°41'7 3.3
2016-Sep-21 03:33N 51°38' E 006°36'0 0.0
2016-Sep-21 02:33N 51°38' E 006°36'33 2.8
2016-Sep-20 14:30N 51°53' E 005°48'22 5.6
2016-Sep-20 10:31N 51°49' E 005°12'15 7.5
2016-Sep-20 08:33N 51°49' E 004°48'6 6.0
2016-Sep-20 07:33N 51°51' E 004°39'0 0.0
2016-Sep-20 06:33N 51°51' E 004°39'19 4.7
2016-Sep-20 02:33N 51°56' E 004°10'0 0.0
2016-Sep-19 23:33N 51°56' E 004°10'5 1.1
2016-Sep-19 19:33N 51°56' E 004°02'0 0.0
2016-Sep-19 18:33N 51°56' E 004°02'0 0.2
2016-Sep-19 16:33N 51°56' E 004°02'0 0.0
2016-Sep-19 14:33N 51°56' E 004°02'0 0.0
2016-Sep-19 13:33N 51°56' E 004°02'0 0.0
2016-Sep-19 12:33N 51°56' E 004°02'5 4.6
2016-Sep-19 11:33N 51°58' E 004°09'13 6.3
2016-Sep-19 09:33N 51°54' E 004°29'0 0.0
2016-Sep-19 07:33N 51°54' E 004°29'0 0.0
2016-Sep-19 06:33N 51°54' E 004°29'0 0.0
2016-Sep-19 03:33N 51°54' E 004°29'0 0.0
2016-Sep-19 02:33N 51°54' E 004°29'0 0.0
2016-Sep-19 00:33N 51°54' E 004°29'0 0.0
2016-Sep-18 19:33N 51°54' E 004°29'0 0.0
2016-Sep-18 15:33N 51°54' E 004°29'0 0.0
2016-Sep-18 14:33N 51°54' E 004°29'0 0.0
2016-Sep-18 10:33N 51°54' E 004°29'0 0.0
2016-Sep-18 09:33N 51°54' E 004°29'0 0.0
2016-Sep-18 02:33N 51°54' E 004°29'0 0.0
2016-Sep-18 01:33N 51°54' E 004°29'0 0.0
2016-Sep-18 00:33N 51°54' E 004°29'0 0.0
2016-Sep-17 22:33N 51°54' E 004°29'0 0.0
2016-Sep-17 21:33N 51°54' E 004°29'0 0.0
2016-Sep-17 20:33N 51°54' E 004°29'  
Track history (hours):
 
Tides and Currents Weather Stations Pressure Air Temp Water Temp Dewpoint Dewpoint Depression Visibility Wind Speed Wind Dir Waves Ship Positions

Fidato

Last reported at 2016-Sep-27 19:34 UTC. Time now 2016-Sep-28 06:59 UTC.
Position N 51°14' E 006°46'.

Length 135 m; draft 2.5 m.

Type: Ship. MMSI: 244670975.

Date/timePositionNaut miles runAvg speedWind from/ knotsBaromVisibWave heightAir tempDewpointWater temp
2016-Sep-27 19:34N 51°14' E 006°46'31 6.2
2016-Sep-27 14:34N 50°46' E 007°05'105 4.6
2016-Sep-26 15:33N 49°14' E 008°23'0 0.1
2016-Sep-26 13:34N 49°14' E 008°23'0 0.0
2016-Sep-26 11:33N 49°14' E 008°23'0 0.0
2016-Sep-26 08:34N 49°14' E 008°23'13 2.2
2016-Sep-26 02:34N 49°01' E 008°18'0 0.0
2016-Sep-26 01:33N 49°01' E 008°18'0 0.0
2016-Sep-26 00:34N 49°01' E 008°18'0 0.0
2016-Sep-25 21:34N 49°01' E 008°18'0 0.0
2016-Sep-25 17:33N 49°01' E 008°18'0 0.0
2016-Sep-25 16:33N 49°01' E 008°18'0 0.0
2016-Sep-25 15:34N 49°01' E 008°18'0 0.0
2016-Sep-25 14:33N 49°01' E 008°18'0 0.0
2016-Sep-25 12:34N 49°01' E 008°18'0 0.0
2016-Sep-25 11:33N 49°01' E 008°18'0 0.0
2016-Sep-25 10:34N 49°01' E 008°18'0 0.0
2016-Sep-25 09:34N 49°01' E 008°18'0 0.0
2016-Sep-25 07:33N 49°01' E 008°18'0 0.0
2016-Sep-25 04:33N 49°01' E 008°18'0 0.0
2016-Sep-25 00:34N 49°01' E 008°18'0 0.0
2016-Sep-24 22:34N 49°01' E 008°18'0 0.0
2016-Sep-24 21:34N 49°01' E 008°18'0 0.0
2016-Sep-24 19:34N 49°01' E 008°18'0 0.0
2016-Sep-24 18:34N 49°01' E 008°18'0 0.0
2016-Sep-24 17:33N 49°01' E 008°18'0 0.0
2016-Sep-24 16:33N 49°01' E 008°18'0 0.0
2016-Sep-24 14:34N 49°01' E 008°18'0 0.0
2016-Sep-24 12:34N 49°01' E 008°18'0 0.0
2016-Sep-24 10:34N 49°01' E 008°18'0 0.0
2016-Sep-24 09:34N 49°01' E 008°18'0 0.0
2016-Sep-24 03:34N 49°01' E 008°18'0 0.0
2016-Sep-24 02:33N 49°01' E 008°18'0 0.0
2016-Sep-24 01:33N 49°01' E 008°18'0 0.0
2016-Sep-24 00:33N 49°01' E 008°18'0 0.0
2016-Sep-23 19:34N 49°01' E 008°18'0 0.0
2016-Sep-23 17:32N 49°01' E 008°18'1 0.6
2016-Sep-23 16:34N 49°02' E 008°18'4 4.1
2016-Sep-23 15:34N 49°05' E 008°21'8 4.0
2016-Sep-23 13:34N 49°13' E 008°23'106 2.5
2016-Sep-21 19:33N 50°46' E 007°05'11 3.5
2016-Sep-21 16:30N 50°56' E 006°58'38 3.5
2016-Sep-21 05:32N 51°32' E 006°41'7 3.3
2016-Sep-21 03:33N 51°38' E 006°36'0 0.0
2016-Sep-21 02:33N 51°38' E 006°36'33 2.8
2016-Sep-20 14:30N 51°53' E 005°48'22 5.6
2016-Sep-20 10:31N 51°49' E 005°12'15 7.5
2016-Sep-20 08:33N 51°49' E 004°48'6 6.0
2016-Sep-20 07:33N 51°51' E 004°39'0 0.0
2016-Sep-20 06:33N 51°51' E 004°39'19 4.7
2016-Sep-20 02:33N 51°56' E 004°10'0 0.0
2016-Sep-19 23:33N 51°56' E 004°10'5 1.1
2016-Sep-19 19:33N 51°56' E 004°02'0 0.0
2016-Sep-19 18:33N 51°56' E 004°02'0 0.2
2016-Sep-19 16:33N 51°56' E 004°02'0 0.0
2016-Sep-19 14:33N 51°56' E 004°02'0 0.0
2016-Sep-19 13:33N 51°56' E 004°02'0 0.0
2016-Sep-19 12:33N 51°56' E 004°02'5 4.6
2016-Sep-19 11:33N 51°58' E 004°09'13 6.3
2016-Sep-19 09:33N 51°54' E 004°29'0 0.0
2016-Sep-19 07:33N 51°54' E 004°29'0 0.0
2016-Sep-19 06:33N 51°54' E 004°29'0 0.0
2016-Sep-19 03:33N 51°54' E 004°29'0 0.0
2016-Sep-19 02:33N 51°54' E 004°29'0 0.0
2016-Sep-19 00:33N 51°54' E 004°29'0 0.0
2016-Sep-18 19:33N 51°54' E 004°29'0 0.0
2016-Sep-18 15:33N 51°54' E 004°29'0 0.0
2016-Sep-18 14:33N 51°54' E 004°29'0 0.0
2016-Sep-18 10:33N 51°54' E 004°29'0 0.0
2016-Sep-18 09:33N 51°54' E 004°29'0 0.0
2016-Sep-18 02:33N 51°54' E 004°29'0 0.0
2016-Sep-18 01:33N 51°54' E 004°29'0 0.0
2016-Sep-18 00:33N 51°54' E 004°29'0 0.0
2016-Sep-17 22:33N 51°54' E 004°29'0 0.0
2016-Sep-17 21:33N 51°54' E 004°29'0 0.0
2016-Sep-17 20:33N 51°54' E 004°29'  

Dump ship's entire track history